Time;durP1;ratioP1;P1;durP2;ratioP2;P2;SDS_P1;SDS_P2;PMS_P1;PMS_P2;Temp;Humidity;BMP_temperature;BMP_pressure;BME280_temperature;BME280_humidity;BME280_pressure;Samples;Min_cycle;Max_cycle;Signal;HPM_P1;HPM_P2
2022/01/07 00:00:25;;;;;;;14.90;9.95;;;;;;;;;;5102749;28;20202;-69
2022/01/07 00:02:53;;;;;;;16.30;10.35;;;;;;;;;;5102570;28;20196;-68
2022/01/07 00:05:20;;;;;;;16.38;9.88;;;;;;;;;;5102139;28;20203;-69
2022/01/07 00:07:46;;;;;;;16.35;10.60;;;;;;;;;;5102239;28;20220;-68
2022/01/07 00:10:13;;;;;;;17.45;9.90;;;;;;;;;;5102161;28;20188;-68
2022/01/07 00:12:42;;;;;;;17.42;11.63;;;;;;;;;;5102591;28;20203;-69
2022/01/07 00:15:10;;;;;;;18.25;10.82;;;;;;;;;;5101904;28;20203;-69
2022/01/07 00:17:39;;;;;;;20.50;10.82;;;;;;;;;;5102363;28;20543;-69
2022/01/07 00:20:08;;;;;;;17.25;11.27;;;;;;;;;;5102099;28;20495;-69
2022/01/07 00:22:37;;;;;;;19.02;11.48;;;;;;;;;;5102396;28;20237;-69
2022/01/07 00:25:03;;;;;;;21.70;11.23;;;;;;;;;;5102280;28;20231;-68
2022/01/07 00:27:30;;;;;;;22.17;11.48;;;;;;;;;;5101993;28;20219;-68
2022/01/07 00:29:57;;;;;;;16.38;10.98;;;;;;;;;;5102168;28;20203;-70
2022/01/07 00:32:28;;;;;;;19.55;11.95;;;;;;;;;;5102652;28;20202;-69
2022/01/07 00:34:55;;;;;;;25.13;12.05;;;;;;;;;;5102229;28;20188;-70
2022/01/07 00:37:21;;;;;;;20.90;12.38;;;;;;;;;;5102066;28;20192;-69
2022/01/07 00:39:52;;;;;;;20.30;11.50;;;;;;;;;;5102106;28;20192;-69
2022/01/07 00:42:19;;;;;;;21.27;12.05;;;;;;;;;;5102288;28;20218;-69
2022/01/07 00:44:45;;;;;;;17.90;11.45;;;;;;;;;;5102028;28;20215;-69
2022/01/07 00:47:15;;;;;;;17.27;11.60;;;;;;;;;;5101569;28;20470;-69
2022/01/07 00:49:44;;;;;;;19.42;11.18;;;;;;;;;;5102315;28;20484;-69
2022/01/07 00:52:10;;;;;;;19.23;12.13;;;;;;;;;;5101867;28;20263;-68
2022/01/07 00:54:37;;;;;;;21.13;12.48;;;;;;;;;;5101628;28;20202;-68
2022/01/07 00:57:03;;;;;;;20.65;12.25;;;;;;;;;;5101748;28;20192;-69
2022/01/07 00:59:30;;;;;;;18.83;11.77;;;;;;;;;;5101872;28;20203;-67
2022/01/07 01:01:56;;;;;;;19.50;11.88;;;;;;;;;;5101684;28;20196;-67
2022/01/07 01:04:23;;;;;;;20.05;12.40;;;;;;;;;;5102051;28;20196;-67
2022/01/07 01:06:50;;;;;;;16.13;12.05;;;;;;;;;;5101656;28;20216;-67
2022/01/07 01:09:17;;;;;;;21.85;12.50;;;;;;;;;;5101950;28;20195;-67
2022/01/07 01:11:43;;;;;;;20.10;11.35;;;;;;;;;;5101730;28;20196;-66
2022/01/07 01:14:09;;;;;;;19.23;12.07;;;;;;;;;;5101716;28;20203;-66
2022/01/07 01:16:36;;;;;;;20.77;12.10;;;;;;;;;;5101396;28;20207;-66
2022/01/07 01:19:03;;;;;;;21.02;12.55;;;;;;;;;;5101785;28;20211;-67
2022/01/07 01:21:30;;;;;;;16.42;11.30;;;;;;;;;;5101858;28;20196;-66
2022/01/07 01:23:58;;;;;;;19.73;12.00;;;;;;;;;;5104033;28;20200;-66
2022/01/07 01:26:24;;;;;;;16.98;11.27;;;;;;;;;;5105287;28;20226;-67
2022/01/07 01:28:50;;;;;;;20.73;12.43;;;;;;;;;;5105308;28;20196;-65
2022/01/07 01:31:18;;;;;;;19.13;11.50;;;;;;;;;;5105545;28;20196;-67
2022/01/07 01:33:44;;;;;;;16.27;11.15;;;;;;;;;;5105366;28;20272;-67
2022/01/07 01:36:11;;;;;;;14.50;10.68;;;;;;;;;;5104919;28;20188;-67
2022/01/07 01:38:48;;;;;;;18.20;10.38;;;;;;;;;;5105118;28;20203;-66
2022/01/07 01:41:16;;;;;;;15.90;11.32;;;;;;;;;;5105260;28;20196;-67
2022/01/07 01:43:42;;;;;;;20.27;12.55;;;;;;;;;;5105084;28;20215;-67
2022/01/07 01:46:09;;;;;;;22.33;13.63;;;;;;;;;;5104636;28;20216;-67
2022/01/07 01:48:35;;;;;;;26.98;13.75;;;;;;;;;;5105104;28;20203;-67
2022/01/07 01:51:01;;;;;;;22.40;14.35;;;;;;;;;;5105196;28;20195;-66
2022/01/07 01:53:30;;;;;;;19.30;13.50;;;;;;;;;;5105143;28;20196;-67
2022/01/07 01:55:56;;;;;;;20.58;13.88;;;;;;;;;;5104842;28;20240;-67
2022/01/07 01:58:24;;;;;;;22.15;14.45;;;;;;;;;;5105227;28;20362;-67
2022/01/07 02:00:50;;;;;;;22.45;14.45;;;;;;;;;;5104784;28;20196;-67
2022/01/07 02:03:17;;;;;;;19.88;13.00;;;;;;;;;;5105062;28;20196;-66
2022/01/07 02:05:45;;;;;;;18.90;12.73;;;;;;;;;;5104756;28;20200;-66
2022/01/07 02:08:11;;;;;;;22.45;12.93;;;;;;;;;;5104923;28;20223;-65
2022/01/07 02:10:38;;;;;;;19.00;12.63;;;;;;;;;;5104536;28;20420;-66
2022/01/07 02:13:04;;;;;;;17.52;11.55;;;;;;;;;;5105145;28;20397;-67
2022/01/07 02:15:32;;;;;;;17.30;12.07;;;;;;;;;;5105072;28;20195;-67
2022/01/07 02:17:59;;;;;;;15.10;11.68;;;;;;;;;;5104966;28;20222;-67
2022/01/07 02:20:28;;;;;;;17.38;12.43;;;;;;;;;;5104368;28;20203;-66
2022/01/07 02:22:55;;;;;;;16.83;11.45;;;;;;;;;;5103959;28;20199;-66
2022/01/07 02:25:21;;;;;;;16.38;11.02;;;;;;;;;;5104507;28;20201;-66
2022/01/07 02:27:48;;;;;;;19.23;11.23;;;;;;;;;;5104291;28;20216;-67
2022/01/07 02:30:16;;;;;;;15.07;10.40;;;;;;;;;;5104591;28;20196;-67
2022/01/07 02:32:44;;;;;;;16.45;10.65;;;;;;;;;;5104339;28;20203;-67
2022/01/07 02:35:11;;;;;;;16.45;10.57;;;;;;;;;;5104318;28;20204;-66
2022/01/07 02:37:40;;;;;;;16.50;11.73;;;;;;;;;;5104355;28;20508;-66
2022/01/07 02:40:07;;;;;;;18.27;11.77;;;;;;;;;;5104174;28;20499;-67
2022/01/07 02:42:34;;;;;;;18.80;11.48;;;;;;;;;;5104215;28;20202;-68
2022/01/07 02:45:01;;;;;;;15.10;11.38;;;;;;;;;;5103676;28;20215;-68
2022/01/07 02:47:35;;;;;;;17.30;11.70;;;;;;;;;;5103861;28;20223;-66
2022/01/07 02:50:05;;;;;;;17.17;10.88;;;;;;;;;;5103977;28;20223;-66
2022/01/07 02:52:31;;;;;;;13.88;10.20;;;;;;;;;;5103730;28;20188;-68
2022/01/07 02:55:00;;;;;;;14.82;10.98;;;;;;;;;;5103626;28;20195;-68
2022/01/07 02:57:26;;;;;;;15.45;10.65;;;;;;;;;;5104268;28;20196;-69
2022/01/07 02:59:55;;;;;;;15.05;10.45;;;;;;;;;;5104232;28;20195;-68
2022/01/07 03:02:21;;;;;;;18.25;10.75;;;;;;;;;;5103098;28;20203;-69
2022/01/07 03:04:48;;;;;;;17.88;12.18;;;;;;;;;;5103687;28;20195;-66
2022/01/07 03:07:14;;;;;;;15.60;11.13;;;;;;;;;;5103504;28;20218;-66
2022/01/07 03:09:41;;;;;;;17.65;11.15;;;;;;;;;;5103796;28;20196;-68
2022/01/07 03:12:09;;;;;;;16.50;10.20;;;;;;;;;;5103662;28;20203;-66
2022/01/07 03:14:36;;;;;;;15.55;10.88;;;;;;;;;;5103603;28;20203;-66
2022/01/07 03:17:02;;;;;;;13.90;10.40;;;;;;;;;;5103582;28;20514;-66
2022/01/07 03:19:28;;;;;;;16.17;10.23;;;;;;;;;;5103497;28;20203;-66
2022/01/07 03:21:55;;;;;;;14.63;10.18;;;;;;;;;;5103299;28;20203;-66
2022/01/07 03:24:21;;;;;;;16.73;10.23;;;;;;;;;;5103569;28;20500;-66
2022/01/07 03:26:48;;;;;;;13.80;10.20;;;;;;;;;;5103045;28;20249;-66
2022/01/07 03:29:15;;;;;;;17.02;10.45;;;;;;;;;;5102986;28;20203;-66
2022/01/07 03:31:42;;;;;;;14.50;9.88;;;;;;;;;;5103160;28;20203;-66
2022/01/07 03:34:08;;;;;;;18.38;11.02;;;;;;;;;;5103242;28;20202;-67
2022/01/07 03:36:35;;;;;;;19.00;10.57;;;;;;;;;;5103113;28;20223;-67
2022/01/07 03:39:03;;;;;;;16.02;10.02;;;;;;;;;;5102953;28;20192;-67
2022/01/07 03:41:29;;;;;;;17.23;10.40;;;;;;;;;;5103067;28;20192;-67
2022/01/07 03:43:56;;;;;;;15.98;10.77;;;;;;;;;;5103153;28;20212;-67
2022/01/07 03:46:23;;;;;;;15.30;10.23;;;;;;;;;;5102200;28;20222;-67
2022/01/07 03:48:50;;;;;;;19.75;9.98;;;;;;;;;;5102791;28;20223;-68
2022/01/07 03:51:17;;;;;;;15.60;11.38;;;;;;;;;;5102603;28;20198;-68
2022/01/07 03:53:43;;;;;;;15.57;11.27;;;;;;;;;;5102787;28;20196;-68
2022/01/07 03:56:17;;;;;;;17.08;10.32;;;;;;;;;;5102502;28;20196;-68
2022/01/07 03:58:43;;;;;;;16.55;10.07;;;;;;;;;;5103214;28;20491;-69
2022/01/07 04:01:10;;;;;;;18.15;10.30;;;;;;;;;;5102701;28;20195;-68
2022/01/07 04:03:38;;;;;;;13.68;10.23;;;;;;;;;;5102756;28;20363;-68
2022/01/07 04:06:04;;;;;;;14.85;9.55;;;;;;;;;;5102384;28;20196;-68
2022/01/07 04:08:31;;;;;;;20.77;10.15;;;;;;;;;;5102377;28;20215;-68
2022/01/07 04:10:57;;;;;;;15.63;10.43;;;;;;;;;;5102502;28;20203;-68
2022/01/07 04:13:24;;;;;;;15.75;9.85;;;;;;;;;;5102722;28;20195;-66
2022/01/07 04:15:50;;;;;;;19.40;10.15;;;;;;;;;;5102592;28;20196;-66
2022/01/07 04:18:16;;;;;;;18.27;10.40;;;;;;;;;;5102486;28;20405;-66
2022/01/07 04:20:44;;;;;;;17.70;10.95;;;;;;;;;;5102334;28;20212;-66
2022/01/07 04:23:11;;;;;;;12.93;10.10;;;;;;;;;;5102477;28;20195;-66
2022/01/07 04:25:37;;;;;;;15.50;10.68;;;;;;;;;;5102411;28;20226;-65
2022/01/07 04:28:04;;;;;;;14.20;10.27;;;;;;;;;;5102238;28;20226;-65
2022/01/07 04:30:32;;;;;;;19.80;11.10;;;;;;;;;;5102614;28;20196;-67
2022/01/07 04:32:58;;;;;;;20.70;11.23;;;;;;;;;;5102465;28;20196;-66
2022/01/07 04:35:26;;;;;;;14.68;10.63;;;;;;;;;;5101979;28;20200;-66
2022/01/07 04:37:53;;;;;;;18.85;10.48;;;;;;;;;;5102481;28;20199;-65
2022/01/07 04:40:20;;;;;;;16.13;10.27;;;;;;;;;;5102376;28;20196;-66
2022/01/07 04:42:47;;;;;;;13.43;9.45;;;;;;;;;;5102261;28;20233;-66
2022/01/07 04:45:14;;;;;;;18.45;10.32;;;;;;;;;;5101926;28;20215;-66
2022/01/07 04:47:40;;;;;;;16.88;9.45;;;;;;;;;;5102112;28;20219;-66
2022/01/07 04:50:11;;;;;;;12.88;9.23;;;;;;;;;;5102104;28;20196;-69
2022/01/07 04:52:38;;;;;;;14.32;9.18;;;;;;;;;;5102255;28;20191;-68
2022/01/07 04:55:07;;;;;;;14.77;8.95;;;;;;;;;;5102076;28;20486;-68
2022/01/07 04:57:33;;;;;;;14.77;9.05;;;;;;;;;;5104412;28;20192;-69
2022/01/07 05:00:00;;;;;;;15.77;9.43;;;;;;;;;;5106114;28;20203;-69
2022/01/07 05:02:27;;;;;;;12.10;8.50;;;;;;;;;;5106078;28;20195;-68
2022/01/07 05:04:54;;;;;;;11.77;8.43;;;;;;;;;;5106030;28;20211;-68
2022/01/07 05:07:20;;;;;;;12.23;8.52;;;;;;;;;;5106012;28;20226;-66
2022/01/07 05:09:47;;;;;;;15.73;8.82;;;;;;;;;;5106325;28;20230;-66
2022/01/07 05:12:16;;;;;;;12.75;8.35;;;;;;;;;;5106114;28;20417;-65
2022/01/07 05:14:42;;;;;;;12.80;9.05;;;;;;;;;;5105841;28;20196;-66
2022/01/07 05:17:08;;;;;;;12.43;8.85;;;;;;;;;;5105621;28;20196;-66
2022/01/07 05:19:35;;;;;;;12.10;7.85;;;;;;;;;;5105481;28;20207;-65
2022/01/07 05:22:01;;;;;;;13.15;8.52;;;;;;;;;;5105882;28;20196;-65
2022/01/07 05:24:28;;;;;;;10.57;8.52;;;;;;;;;;5105609;28;20203;-65
2022/01/07 05:26:54;;;;;;;10.68;8.73;;;;;;;;;;5105688;28;20414;-65
2022/01/07 05:29:22;;;;;;;12.75;8.27;;;;;;;;;;5105438;28;20216;-66
2022/01/07 05:31:49;;;;;;;13.77;8.63;;;;;;;;;;5105335;28;20202;-66
2022/01/07 05:34:15;;;;;;;12.20;8.50;;;;;;;;;;5105204;28;20204;-66
2022/01/07 05:36:41;;;;;;;9.68;8.00;;;;;;;;;;5105429;28;20234;-65
2022/01/07 05:39:08;;;;;;;14.00;8.45;;;;;;;;;;5105557;28;20192;-66
2022/01/07 05:41:34;;;;;;;11.23;8.55;;;;;;;;;;5105355;28;20203;-67
2022/01/07 05:44:03;;;;;;;10.80;7.88;;;;;;;;;;5105266;28;20511;-67
2022/01/07 05:46:30;;;;;;;11.23;8.38;;;;;;;;;;5105159;28;20238;-69
2022/01/07 05:49:02;;;;;;;11.93;8.10;;;;;;;;;;5104815;28;20215;-69
2022/01/07 05:51:29;;;;;;;10.60;8.15;;;;;;;;;;5105136;28;20203;-69
2022/01/07 05:53:55;;;;;;;10.90;7.88;;;;;;;;;;5105003;28;20203;-69
2022/01/07 05:56:22;;;;;;;11.18;8.98;;;;;;;;;;5105178;28;20195;-69
2022/01/07 05:58:48;;;;;;;15.20;9.80;;;;;;;;;;5105008;28;20192;-69
2022/01/07 06:01:14;;;;;;;11.35;8.20;;;;;;;;;;5105094;28;20203;-68
2022/01/07 06:03:42;;;;;;;10.10;7.88;;;;;;;;;;5104868;28;20196;-68
2022/01/07 06:06:09;;;;;;;11.38;7.95;;;;;;;;;;5104420;28;20196;-68
2022/01/07 06:08:35;;;;;;;9.80;8.02;;;;;;;;;;5104155;28;20211;-69
2022/01/07 06:11:02;;;;;;;10.93;7.95;;;;;;;;;;5104602;28;20202;-68
2022/01/07 06:13:28;;;;;;;14.10;8.32;;;;;;;;;;5104719;28;20195;-68
2022/01/07 06:15:54;;;;;;;11.95;8.10;;;;;;;;;;5104359;28;20387;-68
2022/01/07 06:18:21;;;;;;;11.45;7.43;;;;;;;;;;5104951;28;20207;-68
2022/01/07 06:20:49;;;;;;;8.48;7.07;;;;;;;;;;5104486;28;20195;-68
2022/01/07 06:23:16;;;;;;;11.07;7.10;;;;;;;;;;5104457;28;20207;-69
2022/01/07 06:25:44;;;;;;;11.00;6.82;;;;;;;;;;5106129;28;20229;-67
2022/01/07 06:28:10;;;;;;;10.02;7.05;;;;;;;;;;5105101;28;20230;-67
2022/01/07 06:30:37;;;;;;;10.60;6.90;;;;;;;;;;5105036;28;20196;-67
2022/01/07 06:33:03;;;;;;;8.07;6.32;;;;;;;;;;5105375;28;20472;-67
2022/01/07 06:35:30;;;;;;;7.80;6.15;;;;;;;;;;5105216;28;20195;-67
2022/01/07 06:37:57;;;;;;;10.70;6.97;;;;;;;;;;5104941;28;20191;-67
2022/01/07 06:40:24;;;;;;;7.43;6.38;;;;;;;;;;5105118;28;20204;-68
2022/01/07 06:42:50;;;;;;;6.70;6.13;;;;;;;;;;5105095;28;20203;-68
2022/01/07 06:45:17;;;;;;;11.80;7.25;;;;;;;;;;5104799;28;20586;-68
2022/01/07 06:47:44;;;;;;;7.30;5.82;;;;;;;;;;5104726;28;20208;-68
2022/01/07 06:50:11;;;;;;;8.27;6.45;;;;;;;;;;5105309;28;20525;-68
2022/01/07 06:52:37;;;;;;;10.60;7.05;;;;;;;;;;5105028;28;20202;-68
2022/01/07 06:55:05;;;;;;;7.25;6.50;;;;;;;;;;5103890;28;20388;-68
2022/01/07 06:57:32;;;;;;;8.20;6.20;;;;;;;;;;5104190;28;20196;-68
2022/01/07 06:59:58;;;;;;;7.82;6.07;;;;;;;;;;5104124;28;20368;-68
2022/01/07 07:02:24;;;;;;;7.75;6.70;;;;;;;;;;5103646;28;20203;-68
2022/01/07 07:04:51;;;;;;;10.48;7.75;;;;;;;;;;5102422;28;20441;-53
2022/01/07 07:07:17;;;;;;;10.77;6.50;;;;;;;;;;5103554;28;20195;-53
2022/01/07 07:09:44;;;;;;;7.30;5.97;;;;;;;;;;5103644;28;20227;-54
2022/01/07 07:12:13;;;;;;;6.75;5.95;;;;;;;;;;5103410;28;20196;-53
2022/01/07 07:14:39;;;;;;;10.57;6.97;;;;;;;;;;5103543;28;20203;-52
2022/01/07 07:17:06;;;;;;;10.20;7.00;;;;;;;;;;5102193;28;20200;-53
2022/01/07 07:19:33;;;;;;;11.38;7.15;;;;;;;;;;5114889;27;20215;-61
2022/01/07 07:21:59;;;;;;;8.15;6.65;;;;;;;;;;5115240;28;20473;-62
2022/01/07 07:24:26;;;;;;;7.65;5.78;;;;;;;;;;5134012;27;20207;-58
2022/01/07 07:26:53;;;;;;;11.73;7.03;;;;;;;;;;5112307;28;20303;-55
2022/01/07 07:29:21;;;;;;;13.65;6.97;;;;;;;;;;5113527;28;20265;-54
2022/01/07 07:31:54;;;;;;;13.77;7.43;;;;;;;;;;5116523;28;20241;-53
2022/01/07 07:37:13;;;;;;;10.05;6.88;;;;;;;;;;5079341;28;20206;-54
2022/01/07 07:39:40;;;;;;;9.35;6.55;;;;;;;;;;5117635;28;20230;-54
2022/01/07 07:42:06;;;;;;;7.85;6.35;;;;;;;;;;5116657;27;20433;-59
2022/01/07 07:44:37;;;;;;;7.22;6.25;;;;;;;;;;5109343;28;20258;-59
2022/01/07 07:47:04;;;;;;;6.53;5.55;;;;;;;;;;5115910;28;20210;-59
2022/01/07 07:49:30;;;;;;;6.18;5.57;;;;;;;;;;5115879;28;20218;-59
2022/01/07 07:51:56;;;;;;;6.70;5.47;;;;;;;;;;5115566;28;20211;-59
2022/01/07 07:54:23;;;;;;;7.88;6.30;;;;;;;;;;5114936;28;20210;-58
2022/01/07 07:56:49;;;;;;;7.32;5.68;;;;;;;;;;5115161;28;20705;-59
2022/01/07 07:59:16;;;;;;;7.20;6.15;;;;;;;;;;5115862;28;20214;-59
2022/01/07 08:01:44;;;;;;;8.18;6.53;;;;;;;;;;5115652;28;20445;-58
2022/01/07 08:04:12;;;;;;;9.32;7.50;;;;;;;;;;5114778;28;20215;-58
2022/01/07 08:06:38;;;;;;;10.63;8.00;;;;;;;;;;5115132;28;20263;-59
2022/01/07 08:09:14;;;;;;;13.45;9.88;;;;;;;;;;5114943;28;20732;-59
2022/01/07 08:11:50;;;;;;;13.27;8.57;;;;;;;;;;5120422;27;20205;-60
2022/01/07 08:17:02;;;;;;;13.43;7.68;;;;;;;;;;5115270;28;20537;-60
2022/01/07 08:19:28;;;;;;;10.25;7.93;;;;;;;;;;5115457;28;20214;-60
2022/01/07 08:21:55;;;;;;;11.77;7.65;;;;;;;;;;5115407;28;20211;-59
2022/01/07 08:24:21;;;;;;;9.70;7.53;;;;;;;;;;5115128;28;20647;-59
2022/01/07 08:26:48;;;;;;;8.18;6.45;;;;;;;;;;5115027;28;20211;-58
2022/01/07 08:29:15;;;;;;;15.40;8.02;;;;;;;;;;5114985;28;20223;-58
2022/01/07 08:37:13;;;;;;;13.57;8.13;;;;;;;;;;5115359;28;20307;-58
2022/01/07 08:39:40;;;;;;;16.13;8.68;;;;;;;;;;5115060;28;20218;-59
2022/01/07 08:42:06;;;;;;;14.77;9.68;;;;;;;;;;5115299;28;20545;-58
2022/01/07 08:44:33;;;;;;;15.32;9.85;;;;;;;;;;5115068;28;20284;-58
2022/01/07 08:46:59;;;;;;;13.93;8.73;;;;;;;;;;5114540;28;20660;-58
2022/01/07 08:49:27;;;;;;;18.92;10.32;;;;;;;;;;5115799;28;20263;-59
2022/01/07 08:51:55;;;;;;;14.18;9.25;;;;;;;;;;5115048;28;20215;-59
2022/01/07 08:54:21;;;;;;;15.52;9.18;;;;;;;;;;5115175;28;20286;-59
2022/01/07 08:56:48;;;;;;;18.50;9.45;;;;;;;;;;5113933;28;20211;-58
2022/01/07 08:59:14;;;;;;;16.75;9.73;;;;;;;;;;5115158;28;20661;-59
2022/01/07 09:01:42;;;;;;;11.05;9.02;;;;;;;;;;5114939;28;20549;-59
2022/01/07 09:04:08;;;;;;;14.88;9.02;;;;;;;;;;5115300;28;20264;-57
2022/01/07 09:06:35;;;;;;;10.82;8.93;;;;;;;;;;5113976;28;20218;-59
2022/01/07 09:09:03;;;;;;;13.65;8.13;;;;;;;;;;5114439;28;20231;-59
2022/01/07 09:11:29;;;;;;;12.95;8.05;;;;;;;;;;5118685;28;20209;-59
2022/01/07 09:13:58;;;;;;;11.93;8.52;;;;;;;;;;5117781;28;20218;-58
2022/01/07 09:16:25;;;;;;;15.52;8.30;;;;;;;;;;5114423;28;20278;-59
2022/01/07 09:18:51;;;;;;;11.88;8.23;;;;;;;;;;5114813;28;20246;-59
2022/01/07 09:21:18;;;;;;;13.43;7.63;;;;;;;;;;5115149;28;20218;-58
2022/01/07 09:23:44;;;;;;;13.10;8.20;;;;;;;;;;5115203;28;20218;-57
2022/01/07 09:26:13;;;;;;;10.80;8.65;;;;;;;;;;5114338;28;20538;-60
2022/01/07 09:28:40;;;;;;;13.55;8.80;;;;;;;;;;5114607;28;20218;-59
2022/01/07 09:31:07;;;;;;;14.88;8.63;;;;;;;;;;5115000;28;20217;-59
2022/01/07 09:33:33;;;;;;;11.25;9.15;;;;;;;;;;5115146;28;20542;-60
2022/01/07 09:35:59;;;;;;;13.40;8.68;;;;;;;;;;5113948;28;20530;-59
2022/01/07 09:38:26;;;;;;;12.60;9.70;;;;;;;;;;5114287;28;20211;-59
2022/01/07 09:40:53;;;;;;;13.55;9.75;;;;;;;;;;5114215;28;20519;-59
2022/01/07 09:43:21;;;;;;;16.20;9.90;;;;;;;;;;5114972;28;20210;-59
2022/01/07 09:45:47;;;;;;;15.07;8.73;;;;;;;;;;5118006;28;20441;-58
2022/01/07 09:48:14;;;;;;;14.18;8.95;;;;;;;;;;5117369;28;20287;-59
2022/01/07 09:50:40;;;;;;;10.63;8.65;;;;;;;;;;5118437;28;20269;-59
2022/01/07 09:53:07;;;;;;;17.50;12.18;;;;;;;;;;5117971;28;20253;-58
2022/01/07 09:55:34;;;;;;;15.73;9.30;;;;;;;;;;5117535;28;20217;-58
2022/01/07 09:58:00;;;;;;;12.88;9.48;;;;;;;;;;5117486;28;20226;-59
2022/01/07 10:00:33;;;;;;;14.18;9.10;;;;;;;;;;5117967;28;20473;-59
2022/01/07 10:03:00;;;;;;;10.88;7.75;;;;;;;;;;5117698;28;20215;-59
2022/01/07 10:05:26;;;;;;;18.55;9.00;;;;;;;;;;5117536;28;20211;-59
2022/01/07 10:07:53;;;;;;;13.50;9.25;;;;;;;;;;5118039;28;20268;-61
2022/01/07 10:10:19;;;;;;;11.27;8.40;;;;;;;;;;5118218;28;20231;-59
2022/01/07 10:12:50;;;;;;;12.68;9.68;;;;;;;;;;5123893;27;20594;-57
2022/01/07 10:15:17;;;;;;;10.60;8.10;;;;;;;;;;5117567;28;20211;-58
2022/01/07 10:17:55;;;;;;;15.73;8.60;;;;;;;;;;5117289;28;20348;-60
2022/01/07 10:20:23;;;;;;;10.95;8.95;;;;;;;;;;5117956;28;20252;-60
2022/01/07 10:22:51;;;;;;;12.77;9.48;;;;;;;;;;5118490;28;20275;-60
2022/01/07 10:25:21;;;;;;;14.85;10.95;;;;;;;;;;5117663;28;20545;-59
2022/01/07 10:27:47;;;;;;;11.82;8.95;;;;;;;;;;5117994;28;20211;-59
2022/01/07 10:30:15;;;;;;;13.07;9.65;;;;;;;;;;5117643;28;20429;-59
2022/01/07 10:32:42;;;;;;;10.48;9.07;;;;;;;;;;5118370;28;20217;-59
2022/01/07 10:35:14;;;;;;;9.07;8.20;;;;;;;;;;5117023;28;20217;-58
2022/01/07 10:37:48;;;;;;;12.88;8.52;;;;;;;;;;5117696;28;20203;-58
2022/01/07 10:40:22;;;;;;;12.85;8.55;;;;;;;;;;5117538;28;20518;-57
2022/01/07 10:42:48;;;;;;;11.75;8.45;;;;;;;;;;5118063;28;20211;-58
2022/01/07 10:45:15;;;;;;;10.48;7.80;;;;;;;;;;5117014;28;20246;-59
2022/01/07 10:47:41;;;;;;;11.73;8.60;;;;;;;;;;5117799;28;20218;-61
2022/01/07 10:50:15;;;;;;;13.50;8.25;;;;;;;;;;5117625;28;20427;-61
2022/01/07 10:52:42;;;;;;;19.48;9.25;;;;;;;;;;5117318;28;20210;-61
2022/01/07 10:55:10;;;;;;;14.18;8.93;;;;;;;;;;5116481;28;20572;-61
2022/01/07 10:57:37;;;;;;;14.98;9.02;;;;;;;;;;5116613;28;20550;-61
2022/01/07 11:00:05;;;;;;;16.55;9.23;;;;;;;;;;5117388;28;20382;-61
2022/01/07 11:02:33;;;;;;;9.38;8.13;;;;;;;;;;5117246;28;20473;-61
2022/01/07 11:04:59;;;;;;;13.45;8.50;;;;;;;;;;5116670;28;20217;-60
2022/01/07 11:07:28;;;;;;;11.98;8.93;;;;;;;;;;5116858;28;20548;-60
2022/01/07 11:09:55;;;;;;;9.00;7.78;;;;;;;;;;5117024;28;20258;-60
2022/01/07 11:12:22;;;;;;;12.32;8.68;;;;;;;;;;5117179;28;20211;-60
2022/01/07 11:14:48;;;;;;;11.52;8.13;;;;;;;;;;5116522;28;20242;-60
2022/01/07 11:17:21;;;;;;;10.07;8.15;;;;;;;;;;5116672;28;20257;-60
2022/01/07 11:19:49;;;;;;;10.07;7.90;;;;;;;;;;5117701;28;20215;-60
2022/01/07 11:22:16;;;;;;;14.38;8.60;;;;;;;;;;5116350;28;20211;-61
2022/01/07 11:24:45;;;;;;;9.75;8.32;;;;;;;;;;5116614;28;20218;-60
2022/01/07 11:27:12;;;;;;;12.93;9.10;;;;;;;;;;5115842;28;20228;-60
2022/01/07 11:29:40;;;;;;;11.02;7.78;;;;;;;;;;5112829;28;20227;-60
2022/01/07 11:32:25;;;;;;;12.13;9.82;;;;;;;;;;5113229;28;20230;-61
2022/01/07 11:34:51;;;;;;;15.15;10.02;;;;;;;;;;5115403;28;20210;-60
2022/01/07 11:37:33;;;;;;;14.73;10.82;;;;;;;;;;5115811;28;20271;-60
2022/01/07 11:40:01;;;;;;;14.60;10.52;;;;;;;;;;5116061;28;20527;-58
2022/01/07 11:42:38;;;;;;;13.57;8.55;;;;;;;;;;5116439;28;20525;-58
2022/01/07 11:45:19;;;;;;;8.80;7.85;;;;;;;;;;5114234;28;20233;-58
2022/01/07 11:47:48;;;;;;;16.52;10.73;;;;;;;;;;5115485;28;20218;-56
2022/01/07 11:50:15;;;;;;;12.98;9.98;;;;;;;;;;5115954;28;20234;-58
2022/01/07 11:52:41;;;;;;;15.38;9.98;;;;;;;;;;5116166;28;20467;-58
2022/01/07 11:55:26;;;;;;;13.38;10.07;;;;;;;;;;5114784;28;20211;-58
2022/01/07 11:57:55;;;;;;;13.90;9.43;;;;;;;;;;5115554;28;20210;-59
2022/01/07 12:00:40;;;;;;;11.25;9.60;;;;;;;;;;5115744;28;20219;-59
2022/01/07 12:03:06;;;;;;;14.63;10.20;;;;;;;;;;5115624;28;20211;-58
2022/01/07 12:05:33;;;;;;;14.60;9.88;;;;;;;;;;5114971;28;20633;-59
2022/01/07 12:07:59;;;;;;;14.20;10.00;;;;;;;;;;5114237;28;20210;-58
2022/01/07 12:10:26;;;;;;;12.50;9.73;;;;;;;;;;5115854;28;20227;-57
2022/01/07 12:13:00;;;;;;;14.20;9.95;;;;;;;;;;5121694;27;20539;-57
2022/01/07 12:15:27;;;;;;;15.15;10.38;;;;;;;;;;5114810;28;20395;-58
2022/01/07 12:17:53;;;;;;;13.27;10.00;;;;;;;;;;5115011;28;20226;-57
2022/01/07 12:20:47;;;;;;;14.90;10.27;;;;;;;;;;5115710;28;20451;-60
2022/01/07 12:23:19;;;;;;;13.82;10.85;;;;;;;;;;5115473;28;20202;-61
2022/01/07 12:25:48;;;;;;;14.43;9.82;;;;;;;;;;5114848;28;20421;-58
2022/01/07 12:28:16;;;;;;;17.25;10.63;;;;;;;;;;5115126;28;20233;-58
2022/01/07 12:30:43;;;;;;;11.38;9.30;;;;;;;;;;5115676;28;20522;-58
2022/01/07 12:33:10;;;;;;;14.73;10.40;;;;;;;;;;5114820;28;20582;-60
2022/01/07 12:35:37;;;;;;;14.05;10.07;;;;;;;;;;5111500;28;20207;-59
2022/01/07 12:38:17;;;;;;;14.27;10.57;;;;;;;;;;5118653;28;20210;-59
2022/01/07 12:40:52;;;;;;;14.85;10.02;;;;;;;;;;5135215;28;20200;-59
2022/01/07 12:43:22;;;;;;;12.52;10.52;;;;;;;;;;5119536;28;20408;-59
2022/01/07 12:45:55;;;;;;;14.57;11.23;;;;;;;;;;5114950;28;20222;-58
2022/01/07 12:48:30;;;;;;;15.98;10.70;;;;;;;;;;5128690;28;20210;-58
2022/01/07 12:51:00;;;;;;;16.70;11.48;;;;;;;;;;5130963;28;20249;-59
2022/01/07 12:53:26;;;;;;;18.20;12.18;;;;;;;;;;5136514;27;20213;-59
2022/01/07 12:55:53;;;;;;;18.65;12.45;;;;;;;;;;5125183;28;20519;-58
2022/01/07 12:58:27;;;;;;;16.77;11.82;;;;;;;;;;5115275;28;20210;-58
2022/01/07 13:00:54;;;;;;;21.55;12.38;;;;;;;;;;5115600;28;20202;-61
2022/01/07 13:03:26;;;;;;;22.30;11.93;;;;;;;;;;5115542;28;20215;-58
2022/01/07 13:05:53;;;;;;;20.98;13.00;;;;;;;;;;5114917;28;20275;-58
2022/01/07 13:08:20;;;;;;;22.25;13.50;;;;;;;;;;5113750;28;20551;-58
2022/01/07 13:10:48;;;;;;;19.92;12.93;;;;;;;;;;5115873;28;20527;-59
2022/01/07 13:13:15;;;;;;;19.80;13.02;;;;;;;;;;5133818;28;20207;-58
2022/01/07 13:15:50;;;;;;;16.40;11.52;;;;;;;;;;5133192;28;20389;-58
2022/01/07 13:18:18;;;;;;;19.08;11.23;;;;;;;;;;5114667;28;20436;-58
2022/01/07 13:20:44;;;;;;;13.77;10.68;;;;;;;;;;5119533;28;20411;-57
2022/01/07 13:23:11;;;;;;;16.33;11.43;;;;;;;;;;5119845;28;20207;-58
2022/01/07 13:25:38;;;;;;;17.38;11.75;;;;;;;;;;5119304;28;20207;-58
2022/01/07 13:28:05;;;;;;;12.85;10.75;;;;;;;;;;5118619;28;20211;-58
2022/01/07 13:30:35;;;;;;;15.38;12.00;;;;;;;;;;5119634;28;20549;-59
2022/01/07 13:33:10;;;;;;;20.40;10.88;;;;;;;;;;5119072;28;20225;-59
2022/01/07 13:35:36;;;;;;;15.07;10.60;;;;;;;;;;5118819;28;20774;-59
2022/01/07 13:38:04;;;;;;;15.68;11.30;;;;;;;;;;5136977;27;20240;-60
2022/01/07 13:40:32;;;;;;;16.35;10.85;;;;;;;;;;5121872;27;20263;-60
2022/01/07 13:43:09;;;;;;;17.02;10.93;;;;;;;;;;5119106;28;20207;-60
2022/01/07 13:45:35;;;;;;;15.07;11.00;;;;;;;;;;5118411;28;20550;-61
2022/01/07 13:48:07;;;;;;;13.35;10.93;;;;;;;;;;5118073;28;20206;-59
2022/01/07 13:50:35;;;;;;;17.73;11.82;;;;;;;;;;5118437;28;20618;-58
2022/01/07 13:53:11;;;;;;;18.63;12.00;;;;;;;;;;5118751;28;20207;-58
2022/01/07 13:55:39;;;;;;;14.77;10.77;;;;;;;;;;5118459;28;20233;-59
2022/01/07 13:58:05;;;;;;;17.95;11.77;;;;;;;;;;5107152;28;20215;-57
2022/01/07 14:00:32;;;;;;;16.05;11.35;;;;;;;;;;5107375;28;20214;-60
2022/01/07 14:02:59;;;;;;;15.10;10.90;;;;;;;;;;5119120;28;20463;-59
2022/01/07 14:05:26;;;;;;;13.00;10.13;;;;;;;;;;5117877;28;20248;-59
2022/01/07 14:07:54;;;;;;;12.02;9.45;;;;;;;;;;5118273;28;20467;-59
2022/01/07 14:10:25;;;;;;;12.93;10.00;;;;;;;;;;5118163;28;20238;-59
2022/01/07 14:12:53;;;;;;;15.95;11.00;;;;;;;;;;5133575;27;20213;-58
2022/01/07 14:15:20;;;;;;;12.05;9.02;;;;;;;;;;5138780;27;20233;-58
2022/01/07 14:17:47;;;;;;;15.02;9.32;;;;;;;;;;5138348;27;20217;-57
2022/01/07 14:20:14;;;;;;;17.05;10.07;;;;;;;;;;5138909;27;20222;-59
2022/01/07 14:22:42;;;;;;;13.15;9.57;;;;;;;;;;5118816;27;20234;-59
2022/01/07 14:25:11;;;;;;;11.20;8.70;;;;;;;;;;5117770;28;20402;-59
2022/01/07 14:27:38;;;;;;;12.00;8.95;;;;;;;;;;5117714;28;20599;-58
2022/01/07 14:30:05;;;;;;;10.60;8.30;;;;;;;;;;5117435;28;20214;-57
2022/01/07 14:32:31;;;;;;;8.93;7.65;;;;;;;;;;5118032;28;20218;-58
2022/01/07 14:34:59;;;;;;;9.80;8.15;;;;;;;;;;5117546;28;20357;-59
2022/01/07 14:37:26;;;;;;;8.68;7.63;;;;;;;;;;5117598;28;20207;-58
2022/01/07 14:39:53;;;;;;;11.57;7.82;;;;;;;;;;5117586;28;20367;-59